Chipley, Florida
Current Conditions -  °F | °C
As of 11:58 PM on Friday 28 Nov 2014 (Local Time) from K1J0 Reporting Station
Haze Haze  
Wind Chill: 34°   Ceiling: Unl
Heat Index: 34°   Visibility: 5mi
Dew Point: 33°   Wind: 0mph
Humidity: 96%   Direction: NA
Pressure: 30.31"   Gusts: NA
Location:  30.78°N, 85.54°W
Report Text: K1J0 290558Z AUTO 00000KT 5SM BR CLR 01/01 A3031 RMK AO2 SLP248 T00110006 10056 20011 $
Loading
Personal Weather Stations






























Interactive Weather Map New forecast layout! Learn more

10-Day Weather Forecast

Advertisements
Track Severe Weather on mobile